Jamestown, Pennsylvania
Current Conditions -  °F | °C
As of 4:17 AM on Thursday 18 Dec 2014 (Local Time) from KGKJ Reporting Station
Overcast Overcast  
Wind Chill: 16°   Ceiling: 1600
Heat Index: 27°   Visibility: 10mi
Dew Point: 22°   Wind: 13mph
Humidity: 81%   Direction: 280°W
Pressure: 30.1"   Gusts: NA
Location:  41.48°N, 80.44°W
Report Text: KGKJ 180917Z AUTO 28011KT 10SM OVC016 M03/M06 A3010 RMK AO2 T10281056 TSNO
Loading
Personal Weather Stations






























Interactive Weather Map New forecast layout! Learn more

10-Day Weather Forecast

Advertisements
Track Severe Weather on mobile